Time;durP1;ratioP1;P1;durP2;ratioP2;P2;SDS_P1;SDS_P2;PMS_P1;PMS_P2;Temp;Humidity;BMP_temperature;BMP_pressure;BME280_temperature;BME280_humidity;BME280_pressure;Samples;Min_cycle;Max_cycle;Signal;HPM_P1;HPM_P2
2021/03/26 00:01:35;;;;;;;;;;;;;;;;;;5047247;28;20457;-68
2021/03/26 00:04:02;;;;;;;;;;;;;;;;;;5049556;28;20351;-68
2021/03/26 00:06:28;;;;;;;;;;;;;;;;;;5047177;28;20002;-68
2021/03/26 00:08:55;;;;;;;;;;;;;;;;;;5047436;28;19932;-68
2021/03/26 00:11:21;;;;;;;;;;;;;;;;;;5041068;28;19956;-69
2021/03/26 00:13:48;;;;;;;;;;;;;;;;;;5043934;28;20396;-68
2021/03/26 00:16:14;;;;;;;;;;;;;;;;;;5055297;28;20069;-67
2021/03/26 00:18:41;;;;;;;;;;;;;;;;;;5049203;28;19924;-68
2021/03/26 00:21:07;;;;;;;;;;;;;;;;;;5049602;28;20420;-68
2021/03/26 00:23:34;;;;;;;;;;;;;;;;;;5039782;28;20073;-68
2021/03/26 00:26:00;;;;;;;;;;;;;;;;;;5050916;28;20011;-69
2021/03/26 00:28:27;;;;;;;;;;;;;;;;;;5047183;28;19925;-68
2021/03/26 00:30:53;;;;;;;;;;;;;;;;;;5047596;28;19960;-68
2021/03/26 00:33:20;;;;;;;;;;;;;;;;;;5040236;28;20020;-68
2021/03/26 00:35:47;;;;;;;;;;;;;;;;;;5045930;28;20413;-69
2021/03/26 00:38:13;;;;;;;;;;;;;;;;;;5052451;28;19931;-68
2021/03/26 00:40:40;;;;;;;;;;;;;;;;;;5054306;28;20019;-68
2021/03/26 00:43:06;;;;;;;;;;;;;;;;;;5049855;28;20002;-68
2021/03/26 00:45:33;;;;;;;;;;;;;;;;;;5042670;28;20360;-68
2021/03/26 00:47:59;;;;;;;;;;;;;;;;;;5049268;28;19924;-68
2021/03/26 00:50:26;;;;;;;;;;;;;;;;;;5044315;28;20221;-68
2021/03/26 00:52:52;;;;;;;;;;;;;;;;;;5043023;28;20559;-68
2021/03/26 00:55:19;;;;;;;;;;;;;;;;;;5040152;28;20008;-68
2021/03/26 00:57:45;;;;;;;;;;;;;;;;;;5054964;28;19935;-68
2021/03/26 01:00:12;;;;;;;;;;;;;;;;;;5041941;28;19932;-68
2021/03/26 01:02:38;;;;;;;;;;;;;;;;;;5038830;28;20266;-68
2021/03/26 01:05:05;;;;;;;;;;;;;;;;;;5050671;28;19932;-68
2021/03/26 01:07:31;;;;;;;;;;;;;;;;;;5052580;28;19932;-67
2021/03/26 01:09:58;;;;;;;;;;;;;;;;;;5049660;28;19924;-67
2021/03/26 01:12:24;;;;;;;;;;;;;;;;;;5040770;28;20016;-68
2021/03/26 01:14:51;;;;;;;;;;;;;;;;;;5047035;28;19943;-68
2021/03/26 01:17:17;;;;;;;;;;;;;;;;;;5048086;28;19925;-68
2021/03/26 01:19:44;;;;;;;;;;;;;;;;;;5056794;28;20020;-69
2021/03/26 01:22:10;;;;;;;;;;;;;;;;;;5044004;28;20023;-68
2021/03/26 01:24:37;;;;;;;;;;;;;;;;;;5045371;28;19931;-68
2021/03/26 01:27:03;;;;;;;;;;;;;;;;;;5043675;28;19952;-68
2021/03/26 01:29:30;;;;;;;;;;;;;;;;;;5046937;28;20357;-68
2021/03/26 01:31:56;;;;;;;;;;;;;;;;;;5054625;28;19936;-68
2021/03/26 01:34:23;;;;;;;;;;;;;;;;;;5042561;28;20600;-68
2021/03/26 01:36:50;;;;;;;;;;;;;;;;;;5046228;28;19950;-68
2021/03/26 01:39:16;;;;;;;;;;;;;;;;;;5048196;28;20393;-68
2021/03/26 01:41:43;;;;;;;;;;;;;;;;;;5038134;28;19946;-69
2021/03/26 01:44:09;;;;;;;;;;;;;;;;;;5050418;28;20075;-68
2021/03/26 01:46:36;;;;;;;;;;;;;;;;;;5053659;28;19959;-68
2021/03/26 01:49:02;;;;;;;;;;;;;;;;;;5046910;28;20051;-68
2021/03/26 01:51:29;;;;;;;;;;;;;;;;;;5037422;28;19945;-68
2021/03/26 01:53:55;;;;;;;;;;;;;;;;;;5051448;28;20031;-68
2021/03/26 01:56:22;;;;;;;;;;;;;;;;;;5051080;28;20323;-68
2021/03/26 01:58:48;;;;;;;;;;;;;;;;;;5051150;28;20020;-68
2021/03/26 02:01:15;;;;;;;;;;;;;;;;;;5053018;28;19926;-73
2021/03/26 02:03:41;;;;;;;;;;;;;;;;;;5047426;28;20004;-68
2021/03/26 02:06:08;;;;;;;;;;;;;;;;;;5043420;28;20464;-68
2021/03/26 02:08:34;;;;;;;;;;;;;;;;;;5042032;28;19929;-68
2021/03/26 02:11:01;;;;;;;;;;;;;;;;;;5051629;28;20397;-68
2021/03/26 02:13:27;;;;;;;;;;;;;;;;;;5049409;28;20063;-68
2021/03/26 02:15:54;;;;;;;;;;;;;;;;;;5058083;28;19932;-70
2021/03/26 02:18:20;;;;;;;;;;;;;;;;;;5043545;28;20019;-68
2021/03/26 02:20:47;;;;;;;;;;;;;;;;;;5048558;28;20035;-69
2021/03/26 02:23:13;;;;;;;;;;;;;;;;;;5048110;28;20015;-67
2021/03/26 02:25:40;;;;;;;;;;;;;;;;;;5046098;28;20031;-68
2021/03/26 02:28:06;;;;;;;;;;;;;;;;;;5054798;28;19925;-68
2021/03/26 02:30:33;;;;;;;;;;;;;;;;;;5047182;28;20043;-68
2021/03/26 02:32:59;;;;;;;;;;;;;;;;;;5057483;28;19925;-68
2021/03/26 02:35:26;;;;;;;;;;;;;;;;;;5048017;28;19936;-68
2021/03/26 02:37:52;;;;;;;;;;;;;;;;;;5056560;28;19924;-68
2021/03/26 02:40:19;;;;;;;;;;;;;;;;;;5052424;28;20354;-68
2021/03/26 02:42:45;;;;;;;;;;;;;;;;;;5050170;28;19929;-68
2021/03/26 02:45:12;;;;;;;;;;;;;;;;;;5044808;28;19925;-68
2021/03/26 02:47:38;;;;;;;;;;;;;;;;;;5046356;28;20031;-68
2021/03/26 02:50:05;;;;;;;;;;;;;;;;;;5052806;28;20240;-68
2021/03/26 02:52:31;;;;;;;;;;;;;;;;;;5060323;28;19931;-68
2021/03/26 02:54:58;;;;;;;;;;;;;;;;;;5057253;28;20455;-69
2021/03/26 02:57:24;;;;;;;;;;;;;;;;;;5050887;28;19971;-68
2021/03/26 02:59:51;;;;;;;;;;;;;;;;;;5039322;28;20011;-68
2021/03/26 03:02:17;;;;;;;;;;;;;;;;;;5068971;28;20487;-67
2021/03/26 03:04:44;;;;;;;;;;;;;;;;;;5066985;28;19992;-68
2021/03/26 03:07:10;;;;;;;;;;;;;;;;;;5063736;28;19925;-67
2021/03/26 03:09:37;;;;;;;;;;;;;;;;;;5062649;28;19986;-68
2021/03/26 03:12:03;;;;;;;;;;;;;;;;;;5056227;28;19933;-68
2021/03/26 03:14:30;;;;;;;;;;;;;;;;;;5052016;28;20355;-68
2021/03/26 03:16:56;;;;;;;;;;;;;;;;;;5045814;28;19950;-67
2021/03/26 03:19:23;;;;;;;;;;;;;;;;;;5053568;28;19925;-68
2021/03/26 03:21:49;;;;;;;;;;;;;;;;;;5044059;28;20332;-68
2021/03/26 03:24:16;;;;;;;;;;;;;;;;;;5051597;28;19974;-68
2021/03/26 03:26:42;;;;;;;;;;;;;;;;;;5048533;28;19982;-68
2021/03/26 03:29:09;;;;;;;;;;;;;;;;;;5050014;28;19951;-68
2021/03/26 03:31:36;;;;;;;;;;;;;;;;;;5052825;28;19932;-68
2021/03/26 03:34:02;;;;;;;;;;;;;;;;;;5046937;28;20319;-67
2021/03/26 03:36:29;;;;;;;;;;;;;;;;;;5053458;28;19924;-68
2021/03/26 03:38:55;;;;;;;;;;;;;;;;;;5050234;28;19978;-68
2021/03/26 03:41:22;;;;;;;;;;;;;;;;;;5040037;28;20320;-67
2021/03/26 03:43:48;;;;;;;;;;;;;;;;;;5050470;28;20282;-68
2021/03/26 03:46:14;;;;;;;;;;;;;;;;;;5050991;28;20368;-68
2021/03/26 03:48:41;;;;;;;;;;;;;;;;;;5052545;28;19924;-67
2021/03/26 03:51:07;;;;;;;;;;;;;;;;;;5056068;28;20662;-68
2021/03/26 03:53:34;;;;;;;;;;;;;;;;;;5056299;28;19978;-66
2021/03/26 03:56:00;;;;;;;;;;;;;;;;;;5048253;28;20332;-67
2021/03/26 03:58:27;;;;;;;;;;;;;;;;;;5052885;28;20011;-66
2021/03/26 04:00:53;;;;;;;;;;;;;;;;;;5056543;28;19995;-67
2021/03/26 04:03:20;;;;;;;;;;;;;;;;;;5043649;28;19947;-67
2021/03/26 04:05:46;;;;;;;;;;;;;;;;;;5050768;28;20038;-69
2021/03/26 04:08:13;;;;;;;;;;;;;;;;;;5044526;28;20028;-69
2021/03/26 04:10:40;;;;;;;;;;;;;;;;;;5046567;28;20381;-67
2021/03/26 04:13:06;;;;;;;;;;;;;;;;;;5051395;28;20339;-67
2021/03/26 04:15:34;;;;;;;;;;;;;;;;;;5049153;28;19924;-67
2021/03/26 04:18:00;;;;;;;;;;;;;;;;;;5053690;28;20017;-67
2021/03/26 04:20:27;;;;;;;;;;;;;;;;;;5062907;28;19985;-67
2021/03/26 04:22:53;;;;;;;;;;;;;;;;;;5043347;28;19929;-68
2021/03/26 04:25:21;;;;;;;;;;;;;;;;;;5053006;28;19968;-67
2021/03/26 04:27:47;;;;;;;;;;;;;;;;;;5048163;28;19964;-68
2021/03/26 04:30:14;;;;;;;;;;;;;;;;;;5040900;28;20304;-68
2021/03/26 04:32:40;;;;;;;;;;;;;;;;;;5046256;28;19931;-67
2021/03/26 04:35:07;;;;;;;;;;;;;;;;;;5052589;28;20027;-67
2021/03/26 04:37:33;;;;;;;;;;;;;;;;;;5042676;28;19929;-67
2021/03/26 04:40:00;;;;;;;;;;;;;;;;;;5051290;28;20472;-69
2021/03/26 04:42:26;;;;;;;;;;;;;;;;;;5050653;28;19931;-67
2021/03/26 04:44:53;;;;;;;;;;;;;;;;;;5045903;28;19958;-67
2021/03/26 04:47:19;;;;;;;;;;;;;;;;;;5043456;28;19955;-67
2021/03/26 04:49:46;;;;;;;;;;;;;;;;;;5046834;28;19949;-69
2021/03/26 04:52:12;;;;;;;;;;;;;;;;;;5043142;28;19933;-69
2021/03/26 04:54:39;;;;;;;;;;;;;;;;;;5046374;28;20342;-67
2021/03/26 04:57:05;;;;;;;;;;;;;;;;;;5054785;28;19955;-68
2021/03/26 04:59:32;;;;;;;;;;;;;;;;;;5040427;28;19925;-69
2021/03/26 05:01:59;;;;;;;;;;;;;;;;;;5041809;28;20435;-66
2021/03/26 05:04:25;;;;;;;;;;;;;;;;;;5056381;28;19928;-67
2021/03/26 05:06:52;;;;;;;;;;;;;;;;;;5045119;28;20299;-67
2021/03/26 05:09:18;;;;;;;;;;;;;;;;;;5043761;28;19933;-66
2021/03/26 05:11:45;;;;;;;;;;;;;;;;;;5053563;28;20207;-70
2021/03/26 05:14:11;;;;;;;;;;;;;;;;;;5043447;28;20488;-67
2021/03/26 05:16:38;;;;;;;;;;;;;;;;;;5039824;28;19968;-67
2021/03/26 05:19:04;;;;;;;;;;;;;;;;;;5048228;28;20126;-67
2021/03/26 05:21:31;;;;;;;;;;;;;;;;;;5054240;28;19931;-67
2021/03/26 05:23:57;;;;;;;;;;;;;;;;;;5053615;28;20003;-68
2021/03/26 05:26:24;;;;;;;;;;;;;;;;;;5042416;28;19929;-67
2021/03/26 05:28:50;;;;;;;;;;;;;;;;;;5048775;28;19998;-69
2021/03/26 05:31:17;;;;;;;;;;;;;;;;;;5041944;28;19925;-67
2021/03/26 05:33:43;;;;;;;;;;;;;;;;;;5048125;28;19931;-67
2021/03/26 05:36:10;;;;;;;;;;;;;;;;;;5052569;28;19925;-68
2021/03/26 05:38:36;;;;;;;;;;;;;;;;;;5048139;28;19932;-68
2021/03/26 05:41:03;;;;;;;;;;;;;;;;;;5044881;28;19976;-69
2021/03/26 05:43:29;;;;;;;;;;;;;;;;;;5056593;28;20287;-68
2021/03/26 05:45:56;;;;;;;;;;;;;;;;;;5047046;28;19932;-70
2021/03/26 05:48:22;;;;;;;;;;;;;;;;;;5046129;28;20343;-67
2021/03/26 05:50:49;;;;;;;;;;;;;;;;;;5044150;28;19972;-67
2021/03/26 05:53:15;;;;;;;;;;;;;;;;;;5049524;28;19929;-67
2021/03/26 05:55:42;;;;;;;;;;;;;;;;;;5044317;28;19932;-66
2021/03/26 05:58:08;;;;;;;;;;;;;;;;;;5069077;28;20372;-68
2021/03/26 06:00:35;;;;;;;;;;;;;;;;;;5047542;28;19932;-68
2021/03/26 06:03:01;;;;;;;;;;;;;;;;;;5051888;28;20032;-68
2021/03/26 06:05:28;;;;;;;;;;;;;;;;;;5051570;28;19925;-68
2021/03/26 06:07:55;;;;;;;;;;;;;;;;;;5043531;28;19925;-68
2021/03/26 06:10:21;;;;;;;;;;;;;;;;;;5059317;28;19925;-68
2021/03/26 06:12:48;;;;;;;;;;;;;;;;;;5058050;28;19932;-68
2021/03/26 06:15:14;;;;;;;;;;;;;;;;;;5056101;28;19931;-70
2021/03/26 06:17:41;;;;;;;;;;;;;;;;;;5049545;28;19925;-72
2021/03/26 06:20:24;;;;;;;;;;;;;;;;;;5054388;28;19932;-70
2021/03/26 06:22:51;;;;;;;;;;;;;;;;;;5046603;28;20027;-67
2021/03/26 06:25:17;;;;;;;;;;;;;;;;;;5052271;28;19968;-67
2021/03/26 06:27:44;;;;;;;;;;;;;;;;;;5054631;28;19968;-67
2021/03/26 06:30:11;;;;;;;;;;;;;;;;;;5049970;28;20374;-67
2021/03/26 06:32:38;;;;;;;;;;;;;;;;;;5046492;28;19979;-66
2021/03/26 06:35:07;;;;;;;;;;;;;;;;;;5054574;28;19928;-67
2021/03/26 06:37:33;;;;;;;;;;;;;;;;;;5042435;28;20430;-67
2021/03/26 06:40:00;;;;;;;;;;;;;;;;;;5045089;28;21489;-67
2021/03/26 06:42:26;;;;;;;;;;;;;;;;;;5044865;28;19960;-68
2021/03/26 06:44:53;;;;;;;;;;;;;;;;;;5046756;28;19979;-67
2021/03/26 06:47:19;;;;;;;;;;;;;;;;;;5045280;28;19926;-67
2021/03/26 06:49:48;;;;;;;;;;;;;;;;;;5041438;28;20373;-69
2021/03/26 06:52:14;;;;;;;;;;;;;;;;;;5050773;28;19932;-68
2021/03/26 06:54:41;;;;;;;;;;;;;;;;;;5048236;28;19932;-68
2021/03/26 06:57:07;;;;;;;;;;;;;;;;;;5055106;28;19948;-69
2021/03/26 06:59:34;;;;;;;;;;;;;;;;;;5047382;28;19987;-69
2021/03/26 07:02:01;;;;;;;;;;;;;;;;;;5055459;28;19929;-68
2021/03/26 07:04:27;;;;;;;;;;;;;;;;;;5044916;28;19940;-69
2021/03/26 07:06:54;;;;;;;;;;;;;;;;;;5037670;28;19964;-69
2021/03/26 07:09:20;;;;;;;;;;;;;;;;;;5036855;28;19926;-69
2021/03/26 07:11:47;;;;;;;;;;;;;;;;;;5038909;28;19931;-69
2021/03/26 07:14:14;;;;;;;;;;;;;;;;;;5037899;28;19969;-69
2021/03/26 07:16:43;;;;;;;;;;;;;;;;;;5037326;28;19929;-69
2021/03/26 07:19:10;;;;;;;;;;;;;;;;;;5034540;28;19992;-69
2021/03/26 07:21:36;;;;;;;;;;;;;;;;;;5039547;28;19977;-69
2021/03/26 07:24:03;;;;;;;;;;;;;;;;;;5037384;28;19925;-69
2021/03/26 07:26:29;;;;;;;;;;;;;;;;;;5037319;28;19963;-69
2021/03/26 07:28:57;;;;;;;;;;;;;;;;;;5035786;28;20490;-68
2021/03/26 07:31:23;;;;;;;;;;;;;;;;;;5035383;28;20400;-69
2021/03/26 07:33:50;;;;;;;;;;;;;;;;;;5037183;28;20304;-69
2021/03/26 07:36:16;;;;;;;;;;;;;;;;;;5034798;28;20385;-68
2021/03/26 07:38:43;;;;;;;;;;;;;;;;;;5035079;28;19929;-69
2021/03/26 07:41:09;;;;;;;;;;;;;;;;;;5040110;28;20024;-69
2021/03/26 07:43:36;;;;;;;;;;;;;;;;;;5036096;28;21005;-68
2021/03/26 07:46:02;;;;;;;;;;;;;;;;;;5035592;28;19953;-69
2021/03/26 07:48:29;;;;;;;;;;;;;;;;;;5032518;28;20018;-69
2021/03/26 07:50:57;;;;;;;;;;;;;;;;;;5036168;28;20026;-69
2021/03/26 07:53:24;;;;;;;;;;;;;;;;;;5039808;28;19932;-68
2021/03/26 07:55:50;;;;;;;;;;;;;;;;;;5035862;28;20004;-67
2021/03/26 07:58:17;;;;;;;;;;;;;;;;;;5039338;28;19960;-67
2021/03/26 08:00:43;;;;;;;;;;;;;;;;;;5037421;28;20369;-67
2021/03/26 08:03:10;;;;;;;;;;;;;;;;;;5042667;28;20023;-68
2021/03/26 08:05:37;;;;;;;;;;;;;;;;;;5039203;28;20016;-67
2021/03/26 08:08:04;;;;;;;;;;;;;;;;;;5043852;28;19929;-67
2021/03/26 08:10:30;;;;;;;;;;;;;;;;;;5049895;28;19925;-68
2021/03/26 08:12:57;;;;;;;;;;;;;;;;;;5055815;28;19964;-68
2021/03/26 08:15:23;;;;;;;;;;;;;;;;;;5050108;28;20027;-69
2021/03/26 08:17:50;;;;;;;;;;;;;;;;;;5047977;28;20367;-68
2021/03/26 08:20:16;;;;;;;;;;;;;;;;;;5032691;28;19931;-67
2021/03/26 08:22:43;;;;;;;;;;;;;;;;;;5043190;28;19929;-69
2021/03/26 08:25:09;;;;;;;;;;;;;;;;;;5051733;28;19925;-67
2021/03/26 08:27:36;;;;;;;;;;;;;;;;;;5050157;28;20381;-67
2021/03/26 08:30:03;;;;;;;;;;;;;;;;;;5042633;28;21081;-67
2021/03/26 08:32:29;;;;;;;;;;;;;;;;;;5039924;28;20496;-68
2021/03/26 08:34:56;;;;;;;;;;;;;;;;;;5039492;28;19974;-67
2021/03/26 08:37:22;;;;;;;;;;;;;;;;;;5040153;28;19925;-67
2021/03/26 08:39:49;;;;;;;;;;;;;;;;;;5037513;28;19932;-67
2021/03/26 08:42:16;;;;;;;;;;;;;;;;;;5046724;28;19929;-67
2021/03/26 08:44:42;;;;;;;;;;;;;;;;;;5043563;28;19956;-68
2021/03/26 08:47:09;;;;;;;;;;;;;;;;;;5043657;28;19929;-67
2021/03/26 08:49:36;;;;;;;;;;;;;;;;;;5039541;28;19929;-67
2021/03/26 08:52:02;;;;;;;;;;;;;;;;;;5040202;28;19925;-67
2021/03/26 08:54:29;;;;;;;;;;;;;;;;;;5036528;28;19932;-69
2021/03/26 08:56:55;;;;;;;;;;;;;;;;;;5040811;28;19935;-68
2021/03/26 08:59:22;;;;;;;;;;;;;;;;;;5035296;28;19924;-68
2021/03/26 09:01:49;;;;;;;;;;;;;;;;;;5039537;28;19935;-69
2021/03/26 09:04:15;;;;;;;;;;;;;;;;;;5041003;28;19932;-67
2021/03/26 09:06:42;;;;;;;;;;;;;;;;;;5037439;28;19933;-69
2021/03/26 09:09:08;;;;;;;;;;;;;;;;;;5036708;28;19932;-69
2021/03/26 09:11:35;;;;;;;;;;;;;;;;;;5037542;28;19931;-68
2021/03/26 09:14:01;;;;;;;;;;;;;;;;;;5036675;28;19925;-69
2021/03/26 09:16:28;;;;;;;;;;;;;;;;;;5039640;28;20345;-67
2021/03/26 09:18:54;;;;;;;;;;;;;;;;;;5034907;28;20419;-69
2021/03/26 09:21:21;;;;;;;;;;;;;;;;;;5041854;28;19943;-70
2021/03/26 09:23:48;;;;;;;;;;;;;;;;;;5036922;28;19932;-70
2021/03/26 09:26:15;;;;;;;;;;;;;;;;;;5039840;28;19956;-69
2021/03/26 09:28:41;;;;;;;;;;;;;;;;;;5033972;28;19925;-67
2021/03/26 09:31:08;;;;;;;;;;;;;;;;;;5034937;28;20027;-67
2021/03/26 09:33:34;;;;;;;;;;;;;;;;;;5035494;28;20392;-72
2021/03/26 09:36:01;;;;;;;;;;;;;;;;;;5036082;28;19925;-72
2021/03/26 09:38:28;;;;;;;;;;;;;;;;;;5034662;28;19924;-67
2021/03/26 09:40:59;;;;;;;;;;;;;;;;;;5038197;28;20011;-67
2021/03/26 09:43:26;;;;;;;;;;;;;;;;;;5040308;28;19929;-69
2021/03/26 09:45:52;;;;;;;;;;;;;;;;;;5034408;28;19928;-68
2021/03/26 09:48:19;;;;;;;;;;;;;;;;;;5041106;28;19933;-68
2021/03/26 09:50:45;;;;;;;;;;;;;;;;;;5035796;28;20304;-69
2021/03/26 09:53:12;;;;;;;;;;;;;;;;;;5039301;28;20063;-68
2021/03/26 09:55:39;;;;;;;;;;;;;;;;;;5038093;28;20362;-67
2021/03/26 09:58:06;;;;;;;;;;;;;;;;;;5042785;28;20039;-70
2021/03/26 10:00:32;;;;;;;;;;;;;;;;;;5036355;28;19986;-69
2021/03/26 10:02:59;;;;;;;;;;;;;;;;;;5038911;28;19925;-68
2021/03/26 10:05:25;;;;;;;;;;;;;;;;;;5050749;22;19926;-66
2021/03/26 10:07:54;;;;;;;;;;;;;;;;;;5004669;28;19933;-65
2021/03/26 10:13:06;;;;;;;;;;;;;;;;;;5006299;28;19975;-66
2021/03/26 10:15:33;;;;;;;;;;;;;;;;;;4988918;28;19930;-66
2021/03/26 10:17:59;;;;;;;;;;;;;;;;;;4985971;28;19927;-66
2021/03/26 10:20:26;;;;;;;;;;;;;;;;;;4981120;28;19941;-66
2021/03/26 10:22:52;;;;;;;;;;;;;;;;;;4982713;28;20129;-66
2021/03/26 10:25:19;;;;;;;;;;;;;;;;;;4982978;28;19933;-65
2021/03/26 10:27:46;;;;;;;;;;;;;;;;;;4982952;28;20044;-64
2021/03/26 10:30:12;;;;;;;;;;;;;;;;;;4983625;28;19930;-66
2021/03/26 10:32:39;;;;;;;;;;;;;;;;;;4987186;28;19926;-65
2021/03/26 10:35:05;;;;;;;;;;;;;;;;;;4990863;28;19973;-66
2021/03/26 10:37:32;;;;;;;;;;;;;;;;;;4986187;28;20358;-65
2021/03/26 10:39:58;;;;;;;;;;;;;;;;;;4984338;28;20028;-66
2021/03/26 10:42:25;;;;;;;;;;;;;;;;;;4984851;28;19972;-66
2021/03/26 10:44:53;;;;;;;;;;;;;;;;;;4990637;28;19932;-66
2021/03/26 10:47:19;;;;;;;;;;;;;;;;;;4986113;28;20418;-66
2021/03/26 10:49:46;;;;;;;;;;;;;;;;;;4986345;28;20012;-66
2021/03/26 10:52:13;;;;;;;;;;;;;;;;;;4986600;28;19934;-65
2021/03/26 10:54:39;;;;;;;;;;;;;;;;;;4986219;28;19930;-66
2021/03/26 10:57:06;;;;;;;;;;;;;;;;;;4984997;28;20326;-66
2021/03/26 10:59:32;;;;;;;;;;;;;;;;;;4982098;28;20033;-66
2021/03/26 11:01:59;;;;;;;;;;;;;;;;;;4986568;28;19926;-63
2021/03/26 11:04:25;;;;;;;;;;;;;;;;;;4987962;28;20441;-64
2021/03/26 11:06:52;;;;;;;;;;;;;;;;;;4984503;28;19933;-65
2021/03/26 11:09:18;;;;;;;;;;;;;;;;;;4981745;28;20383;-64
2021/03/26 11:11:45;;;;;;;;;;;;;;;;;;4985368;28;19995;-64
2021/03/26 11:14:11;;;;;;;;;;;;;;;;;;4986243;28;20017;-65
2021/03/26 11:16:38;;;;;;;;;;;;;;;;;;4986841;28;19934;-66
2021/03/26 11:19:04;;;;;;;;;;;;;;;;;;4988289;28;20020;-66
2021/03/26 11:21:31;;;;;;;;;;;;;;;;;;4983909;28;19926;-66
2021/03/26 11:23:57;;;;;;;;;;;;;;;;;;4985604;28;20073;-65
2021/03/26 11:26:24;;;;;;;;;;;;;;;;;;4989112;28;20374;-66
2021/03/26 11:28:50;;;;;;;;;;;;;;;;;;4982651;28;19952;-66
2021/03/26 11:31:17;;;;;;;;;;;;;;;;;;4985864;28;20002;-67
2021/03/26 11:33:43;;;;;;;;;;;;;;;;;;4987424;28;19981;-67
2021/03/26 11:36:10;;;;;;;;;;;;;;;;;;4985492;28;19932;-67
2021/03/26 11:38:37;;;;;;;;;;;;;;;;;;4984349;28;19933;-67
2021/03/26 11:41:04;;;;;;;;;;;;;;;;;;4983560;28;19996;-67
2021/03/26 11:43:30;;;;;;;;;;;;;;;;;;4986561;28;19925;-66
2021/03/26 11:45:57;;;;;;;;;;;;;;;;;;4989271;28;19932;-65
2021/03/26 11:48:23;;;;;;;;;;;;;;;;;;4984274;28;19937;-67
2021/03/26 11:50:50;;;;;;;;;;;;;;;;;;4989645;28;19972;-66
2021/03/26 11:53:16;;;;;;;;;;;;;;;;;;4988657;28;19925;-65
2021/03/26 11:55:43;;;;;;;;;;;;;;;;;;4983914;28;19940;-66
2021/03/26 11:58:09;;;;;;;;;;;;;;;;;;4984067;28;19925;-66
2021/03/26 12:00:36;;;;;;;;;;;;;;;;;;4987450;28;19930;-66
2021/03/26 12:03:02;;;;;;;;;;;;;;;;;;4987634;28;20373;-66
2021/03/26 12:05:29;;;;;;;;;;;;;;;;;;4984078;28;19930;-67
2021/03/26 12:07:55;;;;;;;;;;;;;;;;;;4984943;28;19936;-67
2021/03/26 12:10:22;;;;;;;;;;;;;;;;;;4984320;28;19971;-67
2021/03/26 12:12:49;;;;;;;;;;;;;;;;;;4988557;28;20356;-67
2021/03/26 12:15:16;;;;;;;;;;;;;;;;;;4986476;28;19953;-66
2021/03/26 12:17:42;;;;;;;;;;;;;;;;;;4988686;28;19936;-64
2021/03/26 12:20:09;;;;;;;;;;;;;;;;;;4986992;28;19925;-65
2021/03/26 12:22:41;;;;;;;;;;;;;;;;;;4992998;28;20374;-66
2021/03/26 12:25:09;;;;;;;;;;;;;;;;;;4978587;28;19956;-66
2021/03/26 12:27:36;;;;;;;;;;;;;;;;;;4983903;28;20017;-65
2021/03/26 12:30:02;;;;;;;;;;;;;;;;;;4981095;28;20306;-66
2021/03/26 12:32:29;;;;;;;;;;;;;;;;;;4987984;28;19957;-66
2021/03/26 12:34:55;;;;;;;;;;;;;;;;;;4990742;28;20026;-66
2021/03/26 12:37:22;;;;;;;;;;;;;;;;;;4987917;28;20287;-66
2021/03/26 12:39:48;;;;;;;;;;;;;;;;;;4983746;28;20394;-66
2021/03/26 12:42:15;;;;;;;;;;;;;;;;;;5005030;28;19989;-67
2021/03/26 12:44:41;;;;;;;;;;;;;;;;;;5002309;28;19951;-66
2021/03/26 12:47:08;;;;;;;;;;;;;;;;;;5001424;28;20028;-66
2021/03/26 12:49:34;;;;;;;;;;;;;;;;;;4983021;28;19930;-66
2021/03/26 12:52:01;;;;;;;;;;;;;;;;;;4988573;28;19926;-68
2021/03/26 12:54:27;;;;;;;;;;;;;;;;;;4996100;28;19977;-66
2021/03/26 12:56:54;;;;;;;;;;;;;;;;;;4996644;28;19981;-66
2021/03/26 12:59:20;;;;;;;;;;;;;;;;;;4984544;28;19930;-64
2021/03/26 13:01:47;;;;;;;;;;;;;;;;;;4988705;28;20214;-66
2021/03/26 13:04:13;;;;;;;;;;;;;;;;;;4987695;28;20378;-67
2021/03/26 13:06:40;;;;;;;;;;;;;;;;;;4988237;28;19943;-66
2021/03/26 13:09:06;;;;;;;;;;;;;;;;;;4983737;28;19934;-65
2021/03/26 13:11:33;;;;;;;;;;;;;;;;;;4987206;28;19929;-66
2021/03/26 13:14:01;;;;;;;;;;;;;;;;;;4987943;28;20213;-67
2021/03/26 13:16:27;;;;;;;;;;;;;;;;;;4985158;28;20446;-65
2021/03/26 13:18:54;;;;;;;;;;;;;;;;;;4987306;28;19936;-69
2021/03/26 13:21:20;;;;;;;;;;;;;;;;;;4989657;28;19925;-65
2021/03/26 13:23:47;;;;;;;;;;;;;;;;;;4984881;28;19926;-67
2021/03/26 13:26:13;;;;;;;;;;;;;;;;;;4988157;28;20016;-66
2021/03/26 13:28:40;;;;;;;;;;;;;;;;;;4986054;28;20397;-67
2021/03/26 13:31:06;;;;;;;;;;;;;;;;;;4987609;28;19926;-66
2021/03/26 13:33:33;;;;;;;;;;;;;;;;;;4987229;28;19973;-67
2021/03/26 13:35:59;;;;;;;;;;;;;;;;;;4990170;28;19926;-65
2021/03/26 13:38:26;;;;;;;;;;;;;;;;;;4986042;28;20448;-68
2021/03/26 13:40:52;;;;;;;;;;;;;;;;;;4987133;28;19936;-66
2021/03/26 13:43:19;;;;;;;;;;;;;;;;;;4991744;28;19988;-65
2021/03/26 13:45:45;;;;;;;;;;;;;;;;;;4990777;28;19995;-66
2021/03/26 13:48:13;;;;;;;;;;;;;;;;;;4993498;28;19930;-67
2021/03/26 13:50:39;;;;;;;;;;;;;;;;;;4990296;28;19929;-68
2021/03/26 13:53:06;;;;;;;;;;;;;;;;;;4992797;28;19965;-66
2021/03/26 13:55:32;;;;;;;;;;;;;;;;;;4987060;28;20052;-65
2021/03/26 13:57:59;;;;;;;;;;;;;;;;;;4991003;28;19926;-67
2021/03/26 14:00:25;;;;;;;;;;;;;;;;;;4989342;28;20021;-67
2021/03/26 14:02:52;;;;;;;;;;;;;;;;;;4990585;28;19965;-65
2021/03/26 14:05:18;;;;;;;;;;;;;;;;;;4990376;28;20009;-67
2021/03/26 14:07:45;;;;;;;;;;;;;;;;;;4989936;28;19926;-65
2021/03/26 14:10:13;;;;;;;;;;;;;;;;;;4990523;28;19949;-67
2021/03/26 14:12:40;;;;;;;;;;;;;;;;;;4994090;28;19925;-65
2021/03/26 14:15:06;;;;;;;;;;;;;;;;;;4993501;28;19925;-66
2021/03/26 14:17:33;;;;;;;;;;;;;;;;;;4995478;28;20067;-66
2021/03/26 14:19:59;;;;;;;;;;;;;;;;;;4993656;28;20287;-67
2021/03/26 14:22:26;;;;;;;;;;;;;;;;;;4982043;28;19992;-67
2021/03/26 14:24:52;;;;;;;;;;;;;;;;;;4989996;28;19926;-66
2021/03/26 14:27:19;;;;;;;;;;;;;;;;;;4994439;28;20455;-66
2021/03/26 14:29:45;;;;;;;;;;;;;;;;;;4993477;28;19926;-65
2021/03/26 14:32:12;;;;;;;;;;;;;;;;;;4993616;28;20021;-67
2021/03/26 14:34:39;;;;;;;;;;;;;;;;;;4991635;28;19926;-65
2021/03/26 14:37:06;;;;;;;;;;;;;;;;;;4996708;28;19972;-65
2021/03/26 14:39:33;;;;;;;;;;;;;;;;;;4989042;28;20012;-67
2021/03/26 14:41:59;;;;;;;;;;;;;;;;;;4996740;28;20065;-66
2021/03/26 14:44:26;;;;;;;;;;;;;;;;;;4992344;28;20278;-66
2021/03/26 14:46:52;;;;;;;;;;;;;;;;;;4986005;28;19937;-66
2021/03/26 14:49:19;;;;;;;;;;;;;;;;;;4989632;28;19930;-65
2021/03/26 14:51:45;;;;;;;;;;;;;;;;;;4991661;28;19925;-66
2021/03/26 14:54:12;;;;;;;;;;;;;;;;;;4993798;28;19934;-65
2021/03/26 14:56:38;;;;;;;;;;;;;;;;;;4989509;28;20370;-66
2021/03/26 14:59:05;;;;;;;;;;;;;;;;;;4992662;28;20364;-68
2021/03/26 15:01:31;;;;;;;;;;;;;;;;;;5000589;28;19933;-66
2021/03/26 15:03:58;;;;;;;;;;;;;;;;;;4998360;28;19934;-67
2021/03/26 15:06:24;;;;;;;;;;;;;;;;;;4996203;28;19976;-67
2021/03/26 15:08:51;;;;;;;;;;;;;;;;;;4993807;28;19929;-67
2021/03/26 15:11:17;;;;;;;;;;;;;;;;;;4994565;28;20068;-68
2021/03/26 15:13:44;;;;;;;;;;;;;;;;;;4999072;28;20425;-67
2021/03/26 15:16:10;;;;;;;;;;;;;;;;;;4992815;28;19980;-67
2021/03/26 15:18:37;;;;;;;;;;;;;;;;;;4996024;28;19930;-67
2021/03/26 15:21:04;;;;;;;;;;;;;;;;;;4997513;28;20358;-66
2021/03/26 15:23:30;;;;;;;;;;;;;;;;;;4995954;28;19994;-68
2021/03/26 15:25:57;;;;;;;;;;;;;;;;;;5000520;28;19968;-66
2021/03/26 15:28:23;;;;;;;;;;;;;;;;;;4993795;28;19933;-68
2021/03/26 15:30:50;;;;;;;;;;;;;;;;;;4993936;28;20309;-68
2021/03/26 15:33:16;;;;;;;;;;;;;;;;;;4994141;28;20419;-65
2021/03/26 15:35:43;;;;;;;;;;;;;;;;;;4993668;28;19964;-66
2021/03/26 15:38:09;;;;;;;;;;;;;;;;;;4993434;28;19987;-66
2021/03/26 15:40:36;;;;;;;;;;;;;;;;;;5001256;28;19971;-66
2021/03/26 15:43:02;;;;;;;;;;;;;;;;;;4998423;28;19934;-67
2021/03/26 15:45:29;;;;;;;;;;;;;;;;;;4997080;28;19933;-65
2021/03/26 15:47:55;;;;;;;;;;;;;;;;;;4997542;28;20354;-66
2021/03/26 15:50:22;;;;;;;;;;;;;;;;;;5000221;28;20025;-67
2021/03/26 15:52:48;;;;;;;;;;;;;;;;;;4998132;28;20421;-66
2021/03/26 15:55:15;;;;;;;;;;;;;;;;;;4992433;28;20005;-65
2021/03/26 15:57:42;;;;;;;;;;;;;;;;;;5001788;28;19926;-67
2021/03/26 16:00:08;;;;;;;;;;;;;;;;;;4995287;28;19981;-67
2021/03/26 16:02:35;;;;;;;;;;;;;;;;;;4993725;28;19969;-67
2021/03/26 16:05:01;;;;;;;;;;;;;;;;;;5017610;22;19929;-72
2021/03/26 16:07:28;;;;;;;;;;;;;;;;;;4997980;28;20379;-72
2021/03/26 16:09:54;;;;;;;;;;;;;;;;;;5001568;28;20397;-70
2021/03/26 16:12:21;;;;;;;;;;;;;;;;;;4998498;28;20381;-70
2021/03/26 16:14:47;;;;;;;;;;;;;;;;;;4996020;28;19976;-68
2021/03/26 16:17:14;;;;;;;;;;;;;;;;;;4997315;28;20029;-71
2021/03/26 16:19:40;;;;;;;;;;;;;;;;;;4996287;28;19969;-71
2021/03/26 16:22:07;;;;;;;;;;;;;;;;;;4991221;28;20407;-70
2021/03/26 16:24:33;;;;;;;;;;;;;;;;;;4995395;28;19954;-69
2021/03/26 16:27:00;;;;;;;;;;;;;;;;;;4997759;28;19926;-70
2021/03/26 16:29:26;;;;;;;;;;;;;;;;;;4997667;28;20492;-70
2021/03/26 16:31:53;;;;;;;;;;;;;;;;;;4991588;28;20012;-70
2021/03/26 16:34:19;;;;;;;;;;;;;;;;;;4991955;28;20021;-68
2021/03/26 16:36:49;;;;;;;;;;;;;;;;;;4995282;28;19961;-70
2021/03/26 16:39:15;;;;;;;;;;;;;;;;;;4993911;28;20478;-70
2021/03/26 16:41:42;;;;;;;;;;;;;;;;;;4989525;28;19934;-71
2021/03/26 16:44:08;;;;;;;;;;;;;;;;;;4996543;28;20028;-69